sensor_id;sensor_type;location;lat;lon;timestamp;pressure;altitude;pressure_sealevel;temperature;humidity
23261;BME280;11799;47.740;-3.390;2023-02-19T00:01:27;102881.72;;;10.15;97.12
23261;BME280;11799;47.740;-3.390;2023-02-19T00:03:58;102872.88;;;10.16;97.45
23261;BME280;11799;47.740;-3.390;2023-02-19T00:06:26;102883.50;;;10.15;97.77
23261;BME280;11799;47.740;-3.390;2023-02-19T00:08:52;102877.34;;;10.14;97.30
23261;BME280;11799;47.740;-3.390;2023-02-19T00:11:20;102874.59;;;10.17;97.41
23261;BME280;11799;47.740;-3.390;2023-02-19T00:13:48;102867.53;;;10.18;97.53
23261;BME280;11799;47.740;-3.390;2023-02-19T00:16:28;102872.88;;;10.16;97.28
23261;BME280;11799;47.740;-3.390;2023-02-19T00:18:55;102882.50;;;10.17;97.68
23261;BME280;11799;47.740;-3.390;2023-02-19T00:21:22;102872.88;;;10.16;97.61
23261;BME280;11799;47.740;-3.390;2023-02-19T00:24:06;102864.16;;;10.14;97.96
23261;BME280;11799;47.740;-3.390;2023-02-19T00:26:32;102877.28;;;10.16;97.76
23261;BME280;11799;47.740;-3.390;2023-02-19T00:28:59;102869.38;;;10.16;97.83
23261;BME280;11799;47.740;-3.390;2023-02-19T00:31:29;102872.88;;;10.16;97.85
23261;BME280;11799;47.740;-3.390;2023-02-19T00:33:58;102875.50;;;10.16;98.13
23261;BME280;11799;47.740;-3.390;2023-02-19T00:36:24;102869.22;;;10.19;97.83
23261;BME280;11799;47.740;-3.390;2023-02-19T00:38:50;102867.47;;;10.19;98.18
23261;BME280;11799;47.740;-3.390;2023-02-19T00:41:17;102868.44;;;10.17;98.24
23261;BME280;11799;47.740;-3.390;2023-02-19T00:46:19;102870.16;;;10.18;98.51
23261;BME280;11799;47.740;-3.390;2023-02-19T00:48:45;102861.38;;;10.17;98.57
23261;BME280;11799;47.740;-3.390;2023-02-19T00:51:11;102855.25;;;10.17;98.24
23261;BME280;11799;47.740;-3.390;2023-02-19T00:53:36;102846.47;;;10.16;98.40
23261;BME280;11799;47.740;-3.390;2023-02-19T00:56:02;102843.88;;;10.15;98.10
23261;BME280;11799;47.740;-3.390;2023-02-19T00:58:28;102839.47;;;10.15;98.12
23261;BME280;11799;47.740;-3.390;2023-02-19T01:00:53;102838.59;;;10.15;98.83
23261;BME280;11799;47.740;-3.390;2023-02-19T01:03:19;102843.88;;;10.15;98.70
23261;BME280;11799;47.740;-3.390;2023-02-19T01:05:48;102832.41;;;10.16;98.65
23261;BME280;11799;47.740;-3.390;2023-02-19T01:08:13;102841.19;;;10.16;98.69
23261;BME280;11799;47.740;-3.390;2023-02-19T01:10:39;102846.47;;;10.16;99.07
23261;BME280;11799;47.740;-3.390;2023-02-19T01:13:05;102836.75;;;10.17;98.91
23261;BME280;11799;47.740;-3.390;2023-02-19T01:15:34;102837.63;;;10.17;98.52
23261;BME280;11799;47.740;-3.390;2023-02-19T01:17:59;102834.97;;;10.17;99.07
23261;BME280;11799;47.740;-3.390;2023-02-19T01:20:25;102823.50;;;10.18;99.10
23261;BME280;11799;47.740;-3.390;2023-02-19T01:22:51;102820.00;;;10.18;98.85
23261;BME280;11799;47.740;-3.390;2023-02-19T01:25:17;102826.13;;;10.18;98.98
23261;BME280;11799;47.740;-3.390;2023-02-19T01:27:43;102820.84;;;10.18;99.05
23261;BME280;11799;47.740;-3.390;2023-02-19T01:30:09;102812.03;;;10.19;98.53
23261;BME280;11799;47.740;-3.390;2023-02-19T01:32:34;102796.28;;;10.16;98.96
23261;BME280;11799;47.740;-3.390;2023-02-19T01:35:00;102797.28;;;10.14;98.86
23261;BME280;11799;47.740;-3.390;2023-02-19T01:37:26;102798.16;;;10.14;98.82
23261;BME280;11799;47.740;-3.390;2023-02-19T01:39:51;102795.50;;;10.14;98.85
23261;BME280;11799;47.740;-3.390;2023-02-19T01:42:17;102805.16;;;10.15;98.67
23261;BME280;11799;47.740;-3.390;2023-02-19T01:47:12;102808.63;;;10.16;99.44
23261;BME280;11799;47.740;-3.390;2023-02-19T01:50:05;102812.22;;;10.15;98.96
23261;BME280;11799;47.740;-3.390;2023-02-19T01:52:35;102803.34;;;10.16;99.27
23261;BME280;11799;47.740;-3.390;2023-02-19T01:55:04;102803.28;;;10.17;98.91
23261;BME280;11799;47.740;-3.390;2023-02-19T01:57:34;102791.03;;;10.16;99.31
23261;BME280;11799;47.740;-3.390;2023-02-19T02:00:05;102801.56;;;10.16;99.26
23261;BME280;11799;47.740;-3.390;2023-02-19T02:02:39;102801.56;;;10.16;99.37
23261;BME280;11799;47.740;-3.390;2023-02-19T02:05:09;102805.94;;;10.17;99.64
23261;BME280;11799;47.740;-3.390;2023-02-19T02:07:37;102804.16;;;10.18;98.94
23261;BME280;11799;47.740;-3.390;2023-02-19T02:10:22;102808.56;;;10.17;99.20
23261;BME280;11799;47.740;-3.390;2023-02-19T02:12:51;102807.63;;;10.20;99.87
23261;BME280;11799;47.740;-3.390;2023-02-19T02:15:22;102811.16;;;10.19;99.45
23261;BME280;11799;47.740;-3.390;2023-02-19T02:18:00;102819.06;;;10.19;99.24
23261;BME280;11799;47.740;-3.390;2023-02-19T02:26:15;102826.94;;;10.20;99.76
23261;BME280;11799;47.740;-3.390;2023-02-19T02:29:12;102829.59;;;10.20;99.62
23261;BME280;11799;47.740;-3.390;2023-02-19T02:31:52;102830.44;;;10.21;99.33
23261;BME280;11799;47.740;-3.390;2023-02-19T02:34:28;102828.66;;;10.21;99.50
23261;BME280;11799;47.740;-3.390;2023-02-19T02:36:55;102827.75;;;10.22;99.30
23261;BME280;11799;47.740;-3.390;2023-02-19T02:39:24;102833.81;;;10.24;100.00
23261;BME280;11799;47.740;-3.390;2023-02-19T02:41:56;102827.69;;;10.24;99.40
23261;BME280;11799;47.740;-3.390;2023-02-19T02:44:46;102823.31;;;10.23;99.50
23261;BME280;11799;47.740;-3.390;2023-02-19T02:47:40;102834.75;;;10.23;99.94
23261;BME280;11799;47.740;-3.390;2023-02-19T02:50:12;102833.88;;;10.23;99.99
23261;BME280;11799;47.740;-3.390;2023-02-19T02:52:43;102835.66;;;10.22;99.91
23261;BME280;11799;47.740;-3.390;2023-02-19T02:55:34;102835.66;;;10.22;99.72
23261;BME280;11799;47.740;-3.390;2023-02-19T02:58:03;102831.31;;;10.21;99.87
23261;BME280;11799;47.740;-3.390;2023-02-19T03:00:30;102832.22;;;10.20;99.86
23261;BME280;11799;47.740;-3.390;2023-02-19T03:03:20;102829.59;;;10.20;99.44
23261;BME280;11799;47.740;-3.390;2023-02-19T03:05:48;102839.22;;;10.21;99.78
23261;BME280;11799;47.740;-3.390;2023-02-19T03:08:25;102837.44;;;10.22;99.53
23261;BME280;11799;47.740;-3.390;2023-02-19T03:10:57;102840.09;;;10.22;99.64
23261;BME280;11799;47.740;-3.390;2023-02-19T03:13:44;102836.59;;;10.21;99.23
23261;BME280;11799;47.740;-3.390;2023-02-19T03:16:33;102831.31;;;10.21;99.59
23261;BME280;11799;47.740;-3.390;2023-02-19T03:19:19;102832.22;;;10.20;99.77
23261;BME280;11799;47.740;-3.390;2023-02-19T03:21:52;102839.16;;;10.23;100.00
23261;BME280;11799;47.740;-3.390;2023-02-19T03:24:23;102827.69;;;10.24;99.60
23261;BME280;11799;47.740;-3.390;2023-02-19T03:27:11;102825.03;;;10.24;99.43
23261;BME280;11799;47.740;-3.390;2023-02-19T03:29:45;102823.31;;;10.23;99.58
23261;BME280;11799;47.740;-3.390;2023-02-19T03:32:33;102830.38;;;10.22;99.95
23261;BME280;11799;47.740;-3.390;2023-02-19T03:35:05;102823.31;;;10.23;99.59
23261;BME280;11799;47.740;-3.390;2023-02-19T03:37:40;102827.75;;;10.22;99.89
23261;BME280;11799;47.740;-3.390;2023-02-19T03:40:07;102825.16;;;10.21;99.48
23261;BME280;11799;47.740;-3.390;2023-02-19T03:45:32;102830.53;;;10.19;99.28
23261;BME280;11799;47.740;-3.390;2023-02-19T03:50:49;102841.09;;;10.19;99.34
23261;BME280;11799;47.740;-3.390;2023-02-19T03:56:14;102840.19;;;10.19;99.88
23261;BME280;11799;47.740;-3.390;2023-02-19T04:01:43;102827.13;;;10.16;99.56
23261;BME280;11799;47.740;-3.390;2023-02-19T04:04:24;102834.06;;;10.18;99.69
23261;BME280;11799;47.740;-3.390;2023-02-19T04:06:54;102825.41;;;10.15;99.72
23261;BME280;11799;47.740;-3.390;2023-02-19T04:09:24;102818.34;;;10.15;99.41
23261;BME280;11799;47.740;-3.390;2023-02-19T04:11:57;102817.50;;;10.15;99.66
23261;BME280;11799;47.740;-3.390;2023-02-19T04:14:29;102818.41;;;10.14;99.42
23261;BME280;11799;47.740;-3.390;2023-02-19T04:17:01;102813.19;;;10.12;99.55
23261;BME280;11799;47.740;-3.390;2023-02-19T04:19:33;102816.03;;;10.08;99.53
23261;BME280;11799;47.740;-3.390;2023-02-19T04:22:03;102820.41;;;10.09;99.52
23261;BME280;11799;47.740;-3.390;2023-02-19T04:24:34;102812.53;;;10.07;99.81
23261;BME280;11799;47.740;-3.390;2023-02-19T04:27:03;102812.53;;;10.07;98.90
23261;BME280;11799;47.740;-3.390;2023-02-19T04:29:29;102831.03;;;10.07;99.23
23261;BME280;11799;47.740;-3.390;2023-02-19T04:31:55;102813.41;;;10.08;99.34
23261;BME280;11799;47.740;-3.390;2023-02-19T04:34:21;102815.19;;;10.07;99.64
23261;BME280;11799;47.740;-3.390;2023-02-19T04:36:46;102817.88;;;10.06;98.96
23261;BME280;11799;47.740;-3.390;2023-02-19T04:39:12;102820.53;;;10.06;99.11
23261;BME280;11799;47.740;-3.390;2023-02-19T04:41:37;102814.38;;;10.05;99.14
23261;BME280;11799;47.740;-3.390;2023-02-19T04:44:03;102817.97;;;10.04;98.85
23261;BME280;11799;47.740;-3.390;2023-02-19T04:46:29;102830.31;;;10.04;98.96
23261;BME280;11799;47.740;-3.390;2023-02-19T04:48:54;102824.28;;;10.00;98.75
23261;BME280;11799;47.740;-3.390;2023-02-19T04:51:20;102828.72;;;10.00;98.20
23261;BME280;11799;47.740;-3.390;2023-02-19T04:53:46;102814.59;;;10.01;98.43
23261;BME280;11799;47.740;-3.390;2023-02-19T04:56:13;102824.28;;;10.00;97.89
23261;BME280;11799;47.740;-3.390;2023-02-19T04:58:40;102826.16;;;9.98;97.50
23261;BME280;11799;47.740;-3.390;2023-02-19T05:01:06;102835.78;;;9.99;97.13
23261;BME280;11799;47.740;-3.390;2023-02-19T05:03:32;102835.91;;;9.96;96.98
23261;BME280;11799;47.740;-3.390;2023-02-19T05:06:04;102843.75;;;9.98;96.71
23261;BME280;11799;47.740;-3.390;2023-02-19T05:08:30;102850.94;;;9.94;95.66
23261;BME280;11799;47.740;-3.390;2023-02-19T05:11:04;102836.84;;;9.95;95.80
23261;BME280;11799;47.740;-3.390;2023-02-19T05:13:30;102850.03;;;9.95;95.72
23261;BME280;11799;47.740;-3.390;2023-02-19T05:16:04;102855.38;;;9.93;95.56
23261;BME280;11799;47.740;-3.390;2023-02-19T05:18:30;102865.00;;;9.94;95.49
23261;BME280;11799;47.740;-3.390;2023-02-19T05:20:57;102861.38;;;9.97;95.53
23261;BME280;11799;47.740;-3.390;2023-02-19T05:23:23;102858.13;;;9.90;94.87
23261;BME280;11799;47.740;-3.390;2023-02-19T05:25:49;102858.06;;;9.92;94.08
23261;BME280;11799;47.740;-3.390;2023-02-19T05:28:15;102864.16;;;9.94;93.58
23261;BME280;11799;47.740;-3.390;2023-02-19T05:30:51;102868.63;;;9.92;93.25
23261;BME280;11799;47.740;-3.390;2023-02-19T05:33:19;102865.19;;;9.90;93.53
23261;BME280;11799;47.740;-3.390;2023-02-19T05:35:47;102870.41;;;9.91;93.45
23261;BME280;11799;47.740;-3.390;2023-02-19T05:38:14;102863.41;;;9.90;93.32
23261;BME280;11799;47.740;-3.390;2023-02-19T05:40:40;102869.56;;;9.91;93.21
23261;BME280;11799;47.740;-3.390;2023-02-19T05:43:06;102866.00;;;9.92;93.00
23261;BME280;11799;47.740;-3.390;2023-02-19T05:45:33;102874.78;;;9.92;93.28
23261;BME280;11799;47.740;-3.390;2023-02-19T05:47:59;102873.97;;;9.90;93.07
23261;BME280;11799;47.740;-3.390;2023-02-19T05:50:25;102870.41;;;9.91;93.25
23261;BME280;11799;47.740;-3.390;2023-02-19T05:52:50;102873.84;;;9.93;93.65
23261;BME280;11799;47.740;-3.390;2023-02-19T05:55:16;102868.69;;;9.90;93.17
23261;BME280;11799;47.740;-3.390;2023-02-19T05:57:44;102873.91;;;9.92;93.08
23261;BME280;11799;47.740;-3.390;2023-02-19T06:00:19;102874.84;;;9.91;92.98
23261;BME280;11799;47.740;-3.390;2023-02-19T06:02:45;102883.59;;;9.91;93.17
23261;BME280;11799;47.740;-3.390;2023-02-19T06:05:11;102892.38;;;9.92;93.17
23261;BME280;11799;47.740;-3.390;2023-02-19T06:07:37;102885.38;;;9.91;92.91
23261;BME280;11799;47.740;-3.390;2023-02-19T06:10:08;102882.09;;;9.86;92.07
23261;BME280;11799;47.740;-3.390;2023-02-19T06:12:34;102889.94;;;9.87;91.22
23261;BME280;11799;47.740;-3.390;2023-02-19T06:15:00;102893.44;;;9.88;91.48
23261;BME280;11799;47.740;-3.390;2023-02-19T06:17:26;102898.72;;;9.88;91.70
23261;BME280;11799;47.740;-3.390;2023-02-19T06:19:51;102890.84;;;9.86;91.21
23261;BME280;11799;47.740;-3.390;2023-02-19T06:22:17;102890.00;;;9.86;91.05
23261;BME280;11799;47.740;-3.390;2023-02-19T06:24:42;102885.59;;;9.86;90.83
23261;BME280;11799;47.740;-3.390;2023-02-19T06:27:08;102896.19;;;9.85;90.84
23261;BME280;11799;47.740;-3.390;2023-02-19T06:29:34;102900.63;;;9.84;90.56
23261;BME280;11799;47.740;-3.390;2023-02-19T06:32:03;102898.03;;;9.83;90.54
23261;BME280;11799;47.740;-3.390;2023-02-19T06:34:30;102888.50;;;9.80;90.41
23261;BME280;11799;47.740;-3.390;2023-02-19T06:36:56;102884.94;;;9.81;89.90
23261;BME280;11799;47.740;-3.390;2023-02-19T06:39:21;102883.16;;;9.82;89.64
23261;BME280;11799;47.740;-3.390;2023-02-19T06:41:47;102893.63;;;9.83;90.32
23261;BME280;11799;47.740;-3.390;2023-02-19T06:44:12;102884.09;;;9.81;90.46
23261;BME280;11799;47.740;-3.390;2023-02-19T06:46:38;102886.63;;;9.82;90.54
23261;BME280;11799;47.740;-3.390;2023-02-19T06:49:04;102890.13;;;9.83;90.47
23261;BME280;11799;47.740;-3.390;2023-02-19T06:51:30;102894.66;;;9.81;90.83
23261;BME280;11799;47.740;-3.390;2023-02-19T06:53:57;102892.94;;;9.80;90.30
23261;BME280;11799;47.740;-3.390;2023-02-19T06:56:32;102902.63;;;9.79;90.37
23261;BME280;11799;47.740;-3.390;2023-02-19T06:58:59;102911.34;;;9.81;90.63
23261;BME280;11799;47.740;-3.390;2023-02-19T07:01:30;102919.38;;;9.78;90.47
23261;BME280;11799;47.740;-3.390;2023-02-19T07:03:55;102919.44;;;9.77;89.91
23261;BME280;11799;47.740;-3.390;2023-02-19T07:06:23;102926.63;;;9.73;88.96
23261;BME280;11799;47.740;-3.390;2023-02-19T07:08:50;102937.34;;;9.69;88.99
23261;BME280;11799;47.740;-3.390;2023-02-19T07:11:15;102940.91;;;9.68;88.84
23261;BME280;11799;47.740;-3.390;2023-02-19T07:13:43;102947.19;;;9.65;88.21
23261;BME280;11799;47.740;-3.390;2023-02-19T07:16:10;102948.94;;;9.65;88.17
23261;BME280;11799;47.740;-3.390;2023-02-19T07:18:37;102947.22;;;9.64;88.07
23261;BME280;11799;47.740;-3.390;2023-02-19T07:21:03;102950.78;;;9.63;88.42
23261;BME280;11799;47.740;-3.390;2023-02-19T07:23:29;102962.19;;;9.63;88.14
23261;BME280;11799;47.740;-3.390;2023-02-19T07:25:55;102956.25;;;9.58;88.19
23261;BME280;11799;47.740;-3.390;2023-02-19T07:28:21;102963.25;;;9.59;88.23
23261;BME280;11799;47.740;-3.390;2023-02-19T07:30:46;102963.31;;;9.57;87.56
23261;BME280;11799;47.740;-3.390;2023-02-19T07:33:12;102976.56;;;9.56;88.00
23261;BME280;11799;47.740;-3.390;2023-02-19T07:35:37;102982.63;;;9.58;87.85
23261;BME280;11799;47.740;-3.390;2023-02-19T07:38:09;102984.34;;;9.59;87.96
23261;BME280;11799;47.740;-3.390;2023-02-19T07:40:34;102993.19;;;9.58;88.21
23261;BME280;11799;47.740;-3.390;2023-02-19T07:43:01;102989.63;;;9.59;88.47
23261;BME280;11799;47.740;-3.390;2023-02-19T07:45:26;102999.31;;;9.58;88.44
23261;BME280;11799;47.740;-3.390;2023-02-19T07:47:52;103001.09;;;9.58;88.81
23261;BME280;11799;47.740;-3.390;2023-02-19T07:50:18;102993.19;;;9.58;88.43
23261;BME280;11799;47.740;-3.390;2023-02-19T07:52:43;102995.75;;;9.59;88.56
23261;BME280;11799;47.740;-3.390;2023-02-19T07:55:09;103000.19;;;9.59;88.56
23261;BME280;11799;47.740;-3.390;2023-02-19T07:57:34;103007.09;;;9.62;88.99
23261;BME280;11799;47.740;-3.390;2023-02-19T08:00:00;102997.53;;;9.59;88.50
23261;BME280;11799;47.740;-3.390;2023-02-19T08:02:25;103002.75;;;9.60;88.50
23261;BME280;11799;47.740;-3.390;2023-02-19T08:05:10;102997.41;;;9.62;88.57
23261;BME280;11799;47.740;-3.390;2023-02-19T08:07:36;103003.63;;;9.61;88.68
23261;BME280;11799;47.740;-3.390;2023-02-19T08:10:03;103002.63;;;9.64;88.56
23261;BME280;11799;47.740;-3.390;2023-02-19T08:12:58;103015.72;;;9.67;88.76
23261;BME280;11799;47.740;-3.390;2023-02-19T08:15:46;103010.38;;;9.68;89.08
23261;BME280;11799;47.740;-3.390;2023-02-19T08:18:13;103005.91;;;9.70;89.07
23261;BME280;11799;47.740;-3.390;2023-02-19T08:20:39;103004.97;;;9.71;89.85
23261;BME280;11799;47.740;-3.390;2023-02-19T08:23:05;103005.91;;;9.70;89.23
23261;BME280;11799;47.740;-3.390;2023-02-19T08:25:31;103003.19;;;9.72;89.51
23261;BME280;11799;47.740;-3.390;2023-02-19T08:27:57;103009.34;;;9.72;88.78
23261;BME280;11799;47.740;-3.390;2023-02-19T08:30:25;103012.84;;;9.73;88.69
23261;BME280;11799;47.740;-3.390;2023-02-19T08:32:52;103015.47;;;9.73;88.60
23261;BME280;11799;47.740;-3.390;2023-02-19T08:35:17;103020.69;;;9.74;88.11
23261;BME280;11799;47.740;-3.390;2023-02-19T08:37:43;103021.50;;;9.76;88.33
23261;BME280;11799;47.740;-3.390;2023-02-19T08:40:09;103029.53;;;9.73;87.82
23261;BME280;11799;47.740;-3.390;2023-02-19T08:42:35;103025.84;;;9.77;88.51
23261;BME280;11799;47.740;-3.390;2023-02-19T08:45:01;103027.69;;;9.75;87.66
23261;BME280;11799;47.740;-3.390;2023-02-19T08:47:26;103027.63;;;9.77;87.19
23261;BME280;11799;47.740;-3.390;2023-02-19T08:49:52;103032.84;;;9.78;87.23
23261;BME280;11799;47.740;-3.390;2023-02-19T08:52:18;103026.50;;;9.82;87.34
23261;BME280;11799;47.740;-3.390;2023-02-19T08:54:43;103032.72;;;9.81;86.92
23261;BME280;11799;47.740;-3.390;2023-02-19T08:57:09;103031.88;;;9.81;86.48
23261;BME280;11799;47.740;-3.390;2023-02-19T08:59:34;103036.34;;;9.79;86.13
23261;BME280;11799;47.740;-3.390;2023-02-19T09:02:00;103030.19;;;9.78;85.03
23261;BME280;11799;47.740;-3.390;2023-02-19T09:04:25;103027.56;;;9.78;84.86
23261;BME280;11799;47.740;-3.390;2023-02-19T09:06:52;103030.16;;;9.80;85.24
23261;BME280;11799;47.740;-3.390;2023-02-19T09:09:18;103042.59;;;9.76;83.77
23261;BME280;11799;47.740;-3.390;2023-02-19T09:11:43;103038.19;;;9.77;84.00
23261;BME280;11799;47.740;-3.390;2023-02-19T09:14:09;103038.97;;;9.79;84.04
23261;BME280;11799;47.740;-3.390;2023-02-19T09:16:35;103033.69;;;9.79;83.91
23261;BME280;11799;47.740;-3.390;2023-02-19T09:19:01;103039.78;;;9.81;83.41
23261;BME280;11799;47.740;-3.390;2023-02-19T09:21:27;103048.47;;;9.83;84.09
23261;BME280;11799;47.740;-3.390;2023-02-19T09:23:53;103048.41;;;9.84;83.96
23261;BME280;11799;47.740;-3.390;2023-02-19T09:26:18;103042.19;;;9.85;84.40
23261;BME280;11799;47.740;-3.390;2023-02-19T09:28:44;103046.44;;;9.89;85.13
23261;BME280;11799;47.740;-3.390;2023-02-19T09:31:12;103048.03;;;9.93;85.46
23261;BME280;11799;47.740;-3.390;2023-02-19T09:33:45;103049.75;;;9.94;85.66
23261;BME280;11799;47.740;-3.390;2023-02-19T09:36:12;103047.25;;;9.91;85.03
23261;BME280;11799;47.740;-3.390;2023-02-19T09:38:38;103058.72;;;9.90;84.67
23261;BME280;11799;47.740;-3.390;2023-02-19T09:43:41;103055.78;;;9.98;85.33
23261;BME280;11799;47.740;-3.390;2023-02-19T09:46:31;103055.09;;;9.93;83.82
23261;BME280;11799;47.740;-3.390;2023-02-19T09:49:00;103062.97;;;9.94;83.87
23261;BME280;11799;47.740;-3.390;2023-02-19T09:51:28;103052.59;;;9.90;83.79
23261;BME280;11799;47.740;-3.390;2023-02-19T09:53:55;103061.25;;;9.93;83.41
23261;BME280;11799;47.740;-3.390;2023-02-19T09:56:24;103071.69;;;9.97;83.78
23261;BME280;11799;47.740;-3.390;2023-02-19T09:58:52;103075.19;;;9.97;83.77
23261;BME280;11799;47.740;-3.390;2023-02-19T10:01:18;103078.00;;;9.92;82.86
23261;BME280;11799;47.740;-3.390;2023-02-19T10:03:47;103081.44;;;9.94;82.77
23261;BME280;11799;47.740;-3.390;2023-02-19T10:06:17;103084.81;;;9.98;83.80
23261;BME280;11799;47.740;-3.390;2023-02-19T10:08:47;103082.19;;;9.98;83.10
23261;BME280;11799;47.740;-3.390;2023-02-19T10:11:13;103069.78;;;10.00;83.75
23261;BME280;11799;47.740;-3.390;2023-02-19T10:13:48;103083.72;;;10.04;84.06
23261;BME280;11799;47.740;-3.390;2023-02-19T10:16:26;103088.00;;;10.06;84.02
23261;BME280;11799;47.740;-3.390;2023-02-19T10:18:52;103076.53;;;10.07;84.21
23261;BME280;11799;47.740;-3.390;2023-02-19T10:21:20;103074.69;;;10.09;84.27
23261;BME280;11799;47.740;-3.390;2023-02-19T10:23:51;103080.72;;;10.13;84.49
23261;BME280;11799;47.740;-3.390;2023-02-19T10:26:18;103082.31;;;10.17;84.65
23261;BME280;11799;47.740;-3.390;2023-02-19T10:28:44;103078.72;;;10.19;84.98
23261;BME280;11799;47.740;-3.390;2023-02-19T10:31:24;103085.66;;;10.22;85.51
23261;BME280;11799;47.740;-3.390;2023-02-19T10:33:52;103087.44;;;10.21;84.53
23261;BME280;11799;47.740;-3.390;2023-02-19T10:36:26;103077.69;;;10.23;84.76
23261;BME280;11799;47.740;-3.390;2023-02-19T10:38:52;103076.81;;;10.23;84.25
23261;BME280;11799;47.740;-3.390;2023-02-19T10:41:21;103080.19;;;10.27;83.84
23261;BME280;11799;47.740;-3.390;2023-02-19T10:46:26;103082.78;;;10.28;83.60
23261;BME280;11799;47.740;-3.390;2023-02-19T10:49:04;103082.72;;;10.30;83.90
23261;BME280;11799;47.740;-3.390;2023-02-19T10:51:36;103084.63;;;10.26;81.73
23261;BME280;11799;47.740;-3.390;2023-02-19T10:56:42;103077.13;;;10.37;83.24
23261;BME280;11799;47.740;-3.390;2023-02-19T11:01:59;103083.84;;;10.44;84.02
23261;BME280;11799;47.740;-3.390;2023-02-19T11:04:27;103085.44;;;10.48;84.73
23261;BME280;11799;47.740;-3.390;2023-02-19T11:06:54;103073.88;;;10.51;85.10
23261;BME280;11799;47.740;-3.390;2023-02-19T11:11:57;103070.06;;;10.58;84.83
23261;BME280;11799;47.740;-3.390;2023-02-19T11:14:25;103078.19;;;10.53;81.31
23261;BME280;11799;47.740;-3.390;2023-02-19T11:16:56;103072.75;;;10.56;81.37
23261;BME280;11799;47.740;-3.390;2023-02-19T11:22:17;103074.16;;;10.65;83.05
23261;BME280;11799;47.740;-3.390;2023-02-19T11:24:48;103081.28;;;10.63;81.90
23261;BME280;11799;47.740;-3.390;2023-02-19T11:27:20;103079.44;;;10.65;81.85
23261;BME280;11799;47.740;-3.390;2023-02-19T11:29:46;103071.25;;;10.71;81.86
23261;BME280;11799;47.740;-3.390;2023-02-19T11:32:23;103072.72;;;10.78;83.62
23261;BME280;11799;47.740;-3.390;2023-02-19T11:34:49;103069.03;;;10.82;84.75
23261;BME280;11799;47.740;-3.390;2023-02-19T11:37:19;103065.44;;;10.83;83.48
23261;BME280;11799;47.740;-3.390;2023-02-19T11:39:47;103057.25;;;10.89;84.43
23261;BME280;11799;47.740;-3.390;2023-02-19T11:42:35;103060.56;;;10.95;84.74
23261;BME280;11799;47.740;-3.390;2023-02-19T11:51:00;103060.91;;;11.06;83.33
23261;BME280;11799;47.740;-3.390;2023-02-19T11:53:31;103060.66;;;11.12;84.33
23261;BME280;11799;47.740;-3.390;2023-02-19T11:56:11;103057.72;;;11.18;85.07
23261;BME280;11799;47.740;-3.390;2023-02-19T11:59:04;103057.53;;;11.22;84.44
23261;BME280;11799;47.740;-3.390;2023-02-19T12:43:25;103049.88;;;11.73;78.61
23261;BME280;11799;47.740;-3.390;2023-02-19T12:45:54;103052.75;;;11.68;77.88
23261;BME280;11799;47.740;-3.390;2023-02-19T12:48:28;103054.75;;;11.63;76.47
23261;BME280;11799;47.740;-3.390;2023-02-19T12:51:04;103054.19;;;11.56;74.61
23261;BME280;11799;47.740;-3.390;2023-02-19T12:56:23;103047.03;;;11.58;76.73
23261;BME280;11799;47.740;-3.390;2023-02-19T12:58:57;103046.03;;;11.61;77.12
23261;BME280;11799;47.740;-3.390;2023-02-19T13:01:30;103039.72;;;11.64;77.66
23261;BME280;11799;47.740;-3.390;2023-02-19T13:04:21;103033.88;;;11.57;75.22
23261;BME280;11799;47.740;-3.390;2023-02-19T13:07:32;103034.03;;;11.54;74.73
23261;BME280;11799;47.740;-3.390;2023-02-19T13:10:24;103032.25;;;11.54;74.87
23261;BME280;11799;47.740;-3.390;2023-02-19T13:12:52;103033.09;;;11.55;76.13
23261;BME280;11799;47.740;-3.390;2023-02-19T13:15:39;103034.78;;;11.56;76.94
23261;BME280;11799;47.740;-3.390;2023-02-19T13:18:17;103026.97;;;11.54;77.54
23261;BME280;11799;47.740;-3.390;2023-02-19T13:20:43;103023.53;;;11.52;76.34
23261;BME280;11799;47.740;-3.390;2023-02-19T13:36:48;102998.59;;;11.56;77.52
23261;BME280;11799;47.740;-3.390;2023-02-19T13:39:15;102995.88;;;11.58;77.85
23261;BME280;11799;47.740;-3.390;2023-02-19T13:41:52;102994.81;;;11.62;79.70
23261;BME280;11799;47.740;-3.390;2023-02-19T13:44:21;102993.97;;;11.62;79.02
23261;BME280;11799;47.740;-3.390;2023-02-19T13:46:49;102999.88;;;11.67;79.85
23261;BME280;11799;47.740;-3.390;2023-02-19T14:06:08;102978.00;;;11.63;76.60
23261;BME280;11799;47.740;-3.390;2023-02-19T14:08:55;102978.94;;;11.62;77.68
23261;BME280;11799;47.740;-3.390;2023-02-19T14:14:34;102972.25;;;11.55;76.39
23261;BME280;11799;47.740;-3.390;2023-02-19T14:19:46;102966.84;;;11.56;79.22
23261;BME280;11799;47.740;-3.390;2023-02-19T14:30:28;102962.88;;;11.48;77.11
23261;BME280;11799;47.740;-3.390;2023-02-19T14:32:56;102961.81;;;11.52;78.65
23261;BME280;11799;47.740;-3.390;2023-02-19T14:35:24;102962.88;;;11.48;75.34
23261;BME280;11799;47.740;-3.390;2023-02-19T14:37:54;102970.69;;;11.51;77.76
23261;BME280;11799;47.740;-3.390;2023-02-19T14:40:26;102957.38;;;11.52;78.21
23261;BME280;11799;47.740;-3.390;2023-02-19T14:42:53;102962.66;;;11.52;76.36
23261;BME280;11799;47.740;-3.390;2023-02-19T14:45:19;102952.00;;;11.54;77.57
23261;BME280;11799;47.740;-3.390;2023-02-19T14:47:47;102957.31;;;11.54;76.25
23261;BME280;11799;47.740;-3.390;2023-02-19T14:50:20;102963.34;;;11.56;77.63
23261;BME280;11799;47.740;-3.390;2023-02-19T14:52:52;102956.38;;;11.55;77.57
23261;BME280;11799;47.740;-3.390;2023-02-19T14:55:25;102955.34;;;11.57;78.90
23261;BME280;11799;47.740;-3.390;2023-02-19T14:57:53;102953.41;;;11.61;78.65
23261;BME280;11799;47.740;-3.390;2023-02-19T15:02:52;102949.09;;;11.58;77.05
23261;BME280;11799;47.740;-3.390;2023-02-19T15:07:52;102945.47;;;11.61;77.26
23261;BME280;11799;47.740;-3.390;2023-02-19T15:10:19;102937.28;;;11.66;78.37
23261;BME280;11799;47.740;-3.390;2023-02-19T15:12:48;102933.78;;;11.65;78.06
23261;BME280;11799;47.740;-3.390;2023-02-19T15:15:19;102933.88;;;11.64;76.75